createdAt,value
2018-01-21T00:02:21.543Z,2.40
2018-01-21T00:04:49.443Z,2.50
2018-01-21T00:07:17.522Z,2.50
2018-01-21T00:09:45.555Z,2.40
2018-01-21T00:12:13.455Z,2.30
2018-01-21T00:14:42.587Z,2.30
2018-01-21T00:17:11.186Z,2.30
2018-01-21T00:19:38.695Z,2.40
2018-01-21T00:22:07.294Z,2.30
2018-01-21T00:24:35.614Z,2.30
2018-01-21T00:27:03.946Z,2.20
2018-01-21T00:29:32.299Z,2.10
2018-01-21T00:31:59.802Z,2.10
2018-01-21T00:34:28.806Z,2.10
2018-01-21T00:36:56.468Z,2.10
2018-01-21T00:39:23.996Z,2.10
2018-01-21T00:41:51.511Z,2.10
2018-01-21T00:44:19.219Z,2.10
2018-01-21T00:46:46.731Z,2.20
2018-01-21T00:49:14.233Z,2.10
2018-01-21T00:51:42.205Z,2.00
2018-01-21T00:54:10.211Z,2.10
2018-01-21T00:56:38.347Z,2.10
2018-01-21T00:59:06.276Z,2.10
2018-01-21T01:01:33.787Z,2.10
2018-01-21T01:04:01.329Z,2.10
2018-01-21T01:06:29.092Z,2.10
2018-01-21T01:08:56.855Z,2.10
2018-01-21T01:11:24.627Z,2.10
2018-01-21T01:13:52.162Z,2.10
2018-01-21T01:16:19.814Z,2.20
2018-01-21T01:18:47.327Z,2.10
2018-01-21T01:21:15.019Z,2.10
2018-01-21T01:23:42.527Z,2.10
2018-01-21T01:26:11.187Z,2.20
2018-01-21T01:28:39.196Z,2.20
2018-01-21T01:31:06.697Z,2.10
2018-01-21T01:33:34.199Z,2.00
2018-01-21T01:36:02.110Z,2.00
2018-01-21T01:38:29.619Z,1.90
2018-01-21T01:40:57.122Z,1.90
2018-01-21T01:43:25.031Z,1.80
2018-01-21T01:45:52.742Z,1.90
2018-01-21T01:48:20.455Z,1.80
2018-01-21T01:50:47.956Z,1.80
2018-01-21T01:53:15.469Z,1.90
2018-01-21T01:55:43.130Z,1.80
2018-01-21T01:58:11.043Z,1.90
2018-01-21T02:00:39.306Z,1.80
2018-01-21T02:03:07.042Z,1.70
2018-01-21T02:05:35.803Z,1.70
2018-01-21T02:08:04.439Z,1.80
2018-01-21T02:10:32.742Z,1.80
2018-01-21T02:13:00.770Z,1.80
2018-01-21T02:15:29.039Z,1.70
2018-01-21T02:17:56.646Z,1.80
2018-01-21T02:20:24.158Z,1.80
2018-01-21T02:22:52.058Z,1.80
2018-01-21T02:25:19.992Z,1.70
2018-01-21T02:27:48.050Z,1.60
2018-01-21T02:30:15.563Z,1.60
2018-01-21T02:32:43.082Z,1.70
2018-01-21T02:35:10.605Z,1.60
2018-01-21T02:37:38.139Z,1.70
2018-01-21T02:40:05.654Z,1.80
2018-01-21T02:42:33.989Z,1.80
2018-01-21T02:45:02.726Z,1.70
2018-01-21T02:47:30.218Z,1.80
2018-01-21T02:49:57.928Z,1.80
2018-01-21T02:52:25.994Z,1.70
2018-01-21T02:54:53.523Z,1.80
2018-01-21T02:57:21.166Z,1.80
2018-01-21T02:59:48.675Z,1.80
2018-01-21T03:02:16.175Z,1.90
2018-01-21T03:04:43.868Z,1.80
2018-01-21T03:07:11.366Z,1.80
2018-01-21T03:09:40.382Z,1.80
2018-01-21T03:12:08.106Z,1.90
2018-01-21T03:14:36.175Z,2.00
2018-01-21T03:17:03.935Z,2.00
2018-01-21T03:19:31.838Z,1.90
2018-01-21T03:21:59.354Z,1.90
2018-01-21T03:24:26.919Z,2.00
2018-01-21T03:26:54.417Z,2.00
2018-01-21T03:29:22.138Z,1.90
2018-01-21T03:31:49.907Z,2.00
2018-01-21T03:34:18.222Z,2.00
2018-01-21T03:36:46.471Z,2.00
2018-01-21T03:39:14.115Z,2.10
2018-01-21T03:41:41.619Z,2.00
2018-01-21T03:44:09.602Z,1.90
2018-01-21T03:46:38.037Z,2.00
2018-01-21T03:49:05.571Z,1.90
2018-01-21T03:51:33.255Z,1.90
2018-01-21T03:54:00.772Z,1.90
2018-01-21T03:56:28.762Z,2.00
2018-01-21T03:58:56.838Z,2.00
2018-01-21T04:01:24.888Z,1.90
2018-01-21T04:03:52.378Z,2.00
2018-01-21T04:06:20.998Z,2.10
2018-01-21T04:08:48.811Z,2.10
2018-01-21T04:11:16.863Z,2.20
2018-01-21T04:13:44.372Z,2.20
2018-01-21T04:16:12.123Z,2.20
2018-01-21T04:18:40.149Z,2.00
2018-01-21T04:21:08.410Z,2.00
2018-01-21T04:23:35.918Z,2.00
2018-01-21T04:26:04.182Z,2.10
2018-01-21T04:28:31.686Z,2.10
2018-01-21T04:31:00.222Z,2.20
2018-01-21T04:33:27.986Z,2.20
2018-01-21T04:35:55.771Z,2.20
2018-01-21T04:38:23.283Z,2.20
2018-01-21T04:40:51.551Z,2.10
2018-01-21T04:43:19.055Z,2.20
2018-01-21T04:45:46.563Z,2.20
2018-01-21T04:48:14.279Z,2.20
2018-01-21T04:50:41.998Z,2.20
2018-01-21T04:53:09.706Z,2.20
2018-01-21T04:55:37.604Z,2.20
2018-01-21T04:58:05.879Z,2.10
2018-01-21T05:00:33.386Z,2.10
2018-01-21T05:03:01.294Z,2.10
2018-01-21T05:05:29.554Z,2.10
2018-01-21T05:07:57.603Z,2.10
2018-01-21T05:10:25.098Z,2.10
2018-01-21T05:12:53.510Z,2.10
2018-01-21T05:15:21.007Z,2.00
2018-01-21T05:17:48.942Z,2.00
2018-01-21T05:20:16.439Z,2.00
2018-01-21T05:22:43.955Z,1.90
2018-01-21T05:25:11.458Z,1.90
2018-01-21T05:27:39.354Z,1.90
2018-01-21T05:30:06.851Z,1.80
2018-01-21T05:32:34.368Z,1.80
2018-01-21T05:35:02.084Z,1.80
2018-01-21T05:37:29.846Z,1.70
2018-01-21T05:39:57.738Z,1.70
2018-01-21T05:42:25.243Z,1.60
2018-01-21T05:44:52.804Z,1.50
2018-01-21T05:47:20.298Z,1.50
2018-01-21T05:49:47.924Z,1.60
2018-01-21T05:52:15.467Z,1.60
2018-01-21T05:54:42.970Z,1.60
2018-01-21T05:57:10.723Z,1.60
2018-01-21T05:59:38.503Z,1.60
2018-01-21T06:02:06.007Z,1.70
2018-01-21T06:04:33.995Z,1.70
2018-01-21T06:07:01.500Z,1.60
2018-01-21T06:09:29.210Z,1.60
2018-01-21T06:11:56.768Z,1.60
2018-01-21T06:14:25.045Z,1.60
2018-01-21T06:16:52.834Z,1.50
2018-01-21T06:19:20.339Z,1.60
2018-01-21T06:21:48.334Z,1.60
2018-01-21T06:24:15.826Z,1.60
2018-01-21T06:26:43.684Z,1.50
2018-01-21T06:29:11.303Z,1.50
2018-01-21T06:31:39.016Z,1.40
2018-01-21T06:34:06.911Z,1.60
2018-01-21T06:36:34.410Z,1.60
2018-01-21T06:39:03.234Z,1.50
2018-01-21T06:41:31.927Z,1.30
2018-01-21T06:44:00.191Z,1.30
2018-01-21T06:46:28.219Z,1.30
2018-01-21T06:48:55.713Z,1.50
2018-01-21T06:51:23.340Z,1.50
2018-01-21T06:53:50.831Z,1.30
2018-01-21T06:56:18.336Z,1.40
2018-01-21T06:58:46.347Z,1.40
2018-01-21T07:01:13.870Z,1.40
2018-01-21T07:03:41.379Z,1.40
2018-01-21T07:06:09.046Z,1.20
2018-01-21T07:08:37.038Z,1.30
2018-01-21T07:11:04.551Z,1.30
2018-01-21T07:13:32.087Z,1.40
2018-01-21T07:16:00.738Z,1.40
2018-01-21T07:18:28.228Z,1.30
2018-01-21T07:20:55.992Z,1.30
2018-01-21T07:23:23.675Z,1.30
2018-01-21T07:25:52.595Z,1.40
2018-01-21T07:28:20.122Z,1.40
2018-01-21T07:30:47.625Z,1.50
2018-01-21T07:33:15.349Z,1.50
2018-01-21T07:35:43.419Z,1.50
2018-01-21T07:38:11.459Z,1.50
2018-01-21T07:40:39.467Z,1.60
2018-01-21T07:43:07.011Z,1.50
2018-01-21T07:45:34.732Z,1.60
2018-01-21T07:48:02.639Z,1.60
2018-01-21T07:50:30.140Z,1.70
2018-01-21T07:52:58.682Z,1.70
2018-01-21T07:55:26.187Z,1.70
2018-01-21T07:57:53.875Z,1.70
2018-01-21T08:00:21.461Z,1.40
2018-01-21T08:02:49.983Z,1.50
2018-01-21T08:05:17.473Z,1.50
2018-01-21T08:07:45.563Z,1.30
2018-01-21T08:10:13.402Z,1.50
2018-01-21T08:12:40.946Z,1.50
2018-01-21T08:15:09.326Z,1.40
2018-01-21T08:17:37.595Z,1.20
2018-01-21T08:20:05.100Z,1.30
2018-01-21T08:22:32.771Z,1.40
2018-01-21T08:25:00.272Z,1.40
2018-01-21T08:27:28.297Z,1.40
2018-01-21T08:29:56.795Z,1.50
2018-01-21T08:32:24.310Z,1.40
2018-01-21T08:34:57.346Z,1.50
2018-01-21T08:37:30.584Z,1.50
2018-01-21T08:40:04.435Z,1.50
2018-01-21T08:42:34.276Z,1.40
2018-01-21T08:45:02.287Z,1.40
2018-01-21T08:47:29.791Z,1.50
2018-01-21T08:49:57.706Z,1.50
2018-01-21T08:52:25.204Z,1.60
2018-01-21T08:54:52.719Z,1.50
2018-01-21T08:57:20.812Z,1.50
2018-01-21T08:59:48.579Z,1.50
2018-01-21T09:02:16.463Z,1.60
2018-01-21T09:04:44.412Z,1.70
2018-01-21T09:07:12.179Z,1.60
2018-01-21T09:09:39.934Z,1.60
2018-01-21T09:12:08.051Z,1.60
2018-01-21T09:14:35.771Z,1.60
2018-01-21T09:17:03.271Z,1.60
2018-01-21T09:19:32.194Z,1.60
2018-01-21T09:21:59.698Z,1.70
2018-01-21T09:24:27.271Z,1.70
2018-01-21T09:26:55.539Z,1.60
2018-01-21T09:29:23.047Z,1.50
2018-01-21T09:31:50.680Z,1.50
2018-01-21T09:34:18.394Z,1.40
2018-01-21T09:36:46.874Z,1.30
2018-01-21T09:39:15.224Z,1.40
2018-01-21T09:41:42.718Z,1.40
2018-01-21T09:44:10.222Z,1.10
2018-01-21T09:46:37.734Z,1.20
2018-01-21T09:49:05.240Z,1.40
2018-01-21T09:51:32.839Z,1.40
2018-01-21T09:54:00.602Z,1.30
2018-01-21T09:56:28.519Z,1.50
2018-01-21T09:58:57.055Z,1.20
2018-01-21T10:01:24.557Z,1.00
2018-01-21T10:03:52.055Z,1.20
2018-01-21T10:06:19.762Z,1.30
2018-01-21T10:08:47.267Z,1.40
2018-01-21T10:11:14.774Z,1.30
2018-01-21T10:13:43.382Z,1.20
2018-01-21T10:16:11.095Z,1.20
2018-01-21T10:18:38.606Z,1.20
2018-01-21T10:21:06.631Z,1.20
2018-01-21T10:23:34.379Z,1.20
2018-01-21T10:26:02.429Z,1.30
2018-01-21T10:28:30.213Z,1.50
2018-01-21T10:30:57.986Z,1.50
2018-01-21T10:33:25.480Z,1.50
2018-01-21T10:35:53.204Z,1.60
2018-01-21T10:38:20.695Z,1.70
2018-01-21T10:40:48.601Z,1.90
2018-01-21T10:43:16.182Z,1.90
2018-01-21T10:45:43.684Z,1.90
2018-01-21T10:48:11.706Z,1.90
2018-01-21T10:50:39.479Z,1.90
2018-01-21T10:53:06.995Z,2.00
2018-01-21T10:55:35.262Z,1.40
2018-01-21T10:58:02.762Z,1.30
2018-01-21T11:00:36.301Z,1.60
2018-01-21T11:03:04.942Z,1.50
2018-01-21T11:05:32.475Z,1.50
2018-01-21T11:08:00.105Z,1.60
2018-01-21T11:10:27.602Z,1.80
2018-01-21T11:12:55.507Z,1.80
2018-01-21T11:15:23.010Z,1.80
2018-01-21T11:17:50.510Z,1.80
2018-01-21T11:20:19.451Z,1.90
2018-01-21T11:22:47.136Z,2.00
2018-01-21T11:25:15.484Z,2.10
2018-01-21T11:27:42.996Z,2.10
2018-01-21T11:30:10.778Z,2.10
2018-01-21T11:32:38.279Z,1.70
2018-01-21T11:35:06.565Z,1.70
2018-01-21T11:37:34.415Z,1.80
2018-01-21T11:40:02.133Z,1.80
2018-01-21T11:42:29.625Z,1.80
2018-01-21T11:44:57.128Z,1.90
2018-01-21T11:47:25.423Z,1.90
2018-01-21T11:49:52.935Z,1.90
2018-01-21T11:52:20.828Z,1.90
2018-01-21T11:54:48.395Z,1.90
2018-01-21T11:57:16.156Z,2.00
2018-01-21T11:59:44.864Z,2.00
2018-01-21T12:02:12.607Z,1.90
2018-01-21T12:04:40.395Z,1.90
2018-01-21T12:07:07.908Z,2.00
2018-01-21T12:09:36.547Z,2.00
2018-01-21T12:12:05.002Z,2.10
2018-01-21T12:14:32.976Z,2.10
2018-01-21T12:17:00.479Z,2.20
2018-01-21T12:19:27.987Z,2.20
2018-01-21T12:21:55.600Z,2.20
2018-01-21T12:24:23.111Z,2.30
2018-01-21T12:26:51.010Z,2.30
2018-01-21T12:29:19.491Z,5.70
2018-01-21T12:31:47.002Z,2.50
2018-01-21T12:34:14.508Z,2.60
2018-01-21T12:36:42.218Z,2.60
2018-01-21T12:39:09.921Z,2.60
2018-01-21T12:41:37.835Z,2.40
2018-01-21T12:44:05.485Z,2.40
2018-01-21T12:46:32.989Z,2.30
2018-01-21T12:49:01.655Z,2.20
2018-01-21T12:51:29.163Z,2.30
2018-01-21T12:53:56.679Z,2.40
2018-01-21T12:56:24.327Z,2.40
2018-01-21T12:58:52.379Z,2.50
2018-01-21T13:01:20.548Z,2.50
2018-01-21T13:03:48.047Z,2.40
2018-01-21T13:06:15.690Z,2.50
2018-01-21T13:08:43.583Z,2.50
2018-01-21T13:11:11.486Z,2.60
2018-01-21T13:13:39.776Z,2.60
2018-01-21T13:16:07.334Z,2.60
2018-01-21T13:18:34.827Z,2.50
2018-01-21T13:21:02.336Z,2.40
2018-01-21T13:23:30.023Z,2.30
2018-01-21T13:25:57.531Z,1.90
2018-01-21T13:28:25.025Z,2.00
2018-01-21T13:30:53.872Z,2.10
2018-01-21T13:33:22.320Z,2.10
2018-01-21T13:35:50.082Z,2.10
2018-01-21T13:38:17.595Z,2.10
2018-01-21T13:40:46.839Z,2.10
2018-01-21T13:43:14.759Z,2.20
2018-01-21T13:45:42.675Z,2.20
2018-01-21T13:48:10.208Z,2.10
2018-01-21T13:50:37.727Z,2.10
2018-01-21T13:53:06.210Z,2.10
2018-01-21T13:55:33.719Z,2.00
2018-01-21T13:58:01.235Z,1.80
2018-01-21T14:00:28.947Z,1.80
2018-01-21T14:02:56.674Z,1.80
2018-01-21T14:05:24.174Z,1.70
2018-01-21T14:07:51.702Z,1.80
2018-01-21T14:10:20.013Z,1.80
2018-01-21T14:12:47.512Z,1.80
2018-01-21T14:15:15.182Z,1.70
2018-01-21T14:17:43.267Z,1.70
2018-01-21T14:20:10.763Z,1.60
2018-01-21T14:22:38.286Z,1.60
2018-01-21T14:25:05.987Z,1.80
2018-01-21T14:27:33.490Z,1.90
2018-01-21T14:30:00.995Z,1.80
2018-01-21T14:32:28.651Z,1.90
2018-01-21T14:34:56.691Z,2.00
2018-01-21T14:37:25.056Z,2.00
2018-01-21T14:39:52.581Z,2.00
2018-01-21T14:42:20.624Z,1.90
2018-01-21T14:44:48.131Z,1.80
2018-01-21T14:47:16.418Z,1.80
2018-01-21T14:49:43.931Z,1.80
2018-01-21T14:52:11.456Z,1.90
2018-01-21T14:54:38.944Z,1.70
2018-01-21T14:57:06.444Z,1.70
2018-01-21T14:59:34.355Z,1.70
2018-01-21T15:02:02.456Z,1.70
2018-01-21T15:04:29.992Z,1.60
2018-01-21T15:06:57.492Z,1.50
2018-01-21T15:09:24.999Z,1.50
2018-01-21T15:11:52.551Z,1.40
2018-01-21T15:14:20.066Z,1.20
2018-01-21T15:16:47.747Z,1.20
2018-01-21T15:19:15.240Z,1.20
2018-01-21T15:21:42.754Z,1.30
2018-01-21T15:24:10.446Z,1.30
2018-01-21T15:26:37.970Z,1.30
2018-01-21T15:29:05.643Z,1.40
2018-01-21T15:31:37.795Z,3.60
2018-01-21T15:34:05.459Z,1.50
2018-01-21T15:36:32.982Z,1.50
2018-01-21T15:39:05.777Z,1.50
2018-01-21T15:41:34.026Z,1.50
2018-01-21T16:17:35.810Z,1.70
2018-01-21T16:20:03.709Z,1.70
2018-01-21T16:22:31.521Z,1.70
2018-01-21T16:24:59.791Z,1.70
2018-01-21T16:27:27.839Z,1.70
2018-01-21T16:29:56.095Z,1.80
2018-01-21T17:00:06.683Z,1.80
2018-01-21T17:02:34.936Z,1.90
2018-01-21T17:05:02.475Z,1.90
2018-01-21T17:07:29.984Z,1.80
2018-01-21T17:09:57.495Z,1.90
2018-01-21T17:12:25.038Z,1.90
2018-01-21T17:14:52.637Z,1.90
2018-01-21T17:17:20.170Z,1.90
2018-01-21T17:19:47.687Z,1.90
2018-01-21T17:22:15.186Z,1.80
2018-01-21T17:24:43.268Z,1.80
2018-01-21T17:27:10.739Z,1.80
2018-01-21T17:29:38.242Z,1.80
2018-01-21T17:32:06.737Z,1.80
2018-01-21T17:34:34.262Z,1.60
2018-01-21T17:37:05.843Z,1.50
2018-01-21T17:39:33.361Z,1.60
2018-01-21T17:42:00.875Z,1.90
2018-01-21T17:44:28.532Z,1.90
2018-01-21T17:46:56.157Z,1.90
2018-01-21T17:49:23.647Z,1.90
2018-01-21T17:51:51.201Z,1.90
2018-01-21T17:54:18.834Z,1.70
2018-01-21T17:56:46.327Z,2.00
2018-01-21T17:59:13.855Z,2.70
2018-01-21T18:01:41.362Z,2.80
2018-01-21T18:04:09.071Z,2.60
2018-01-21T18:06:36.863Z,2.30
2018-01-21T18:09:04.379Z,2.10
2018-01-21T18:11:31.898Z,2.20
2018-01-21T18:13:59.409Z,2.00
2018-01-21T18:16:27.007Z,2.00
2018-01-21T18:18:54.503Z,1.90
2018-01-21T18:21:22.015Z,2.00
2018-01-21T18:23:50.063Z,2.00
2018-01-21T18:26:17.595Z,2.00
2018-01-21T18:28:45.159Z,1.90
2018-01-21T18:31:12.664Z,1.90
2018-01-21T18:33:40.417Z,1.90
2018-01-21T18:36:08.179Z,1.80
2018-01-21T18:38:35.690Z,1.70
2018-01-21T18:41:03.408Z,1.70
2018-01-21T18:43:30.890Z,1.70
2018-01-21T18:45:58.731Z,1.50
2018-01-21T18:48:26.389Z,1.40
2018-01-21T18:50:53.890Z,1.40
2018-01-21T18:53:21.585Z,1.60
2018-01-21T18:55:49.094Z,1.60
2018-01-21T18:58:16.837Z,1.60
2018-01-21T19:00:44.355Z,1.70
2018-01-21T19:03:12.051Z,1.60
2018-01-21T19:05:39.681Z,1.50
2018-01-21T19:08:07.264Z,1.50
2018-01-21T19:10:35.051Z,1.50
2018-01-21T19:13:02.670Z,1.60
2018-01-21T19:15:30.256Z,1.60
2018-01-21T19:17:57.783Z,1.60
2018-01-21T19:20:25.467Z,1.60
2018-01-21T19:22:53.395Z,1.50
2018-01-21T19:25:20.914Z,1.50
2018-01-21T19:27:49.583Z,1.40
2018-01-21T19:30:17.061Z,1.40
2018-01-21T19:32:44.623Z,1.40
2018-01-21T19:35:12.902Z,1.40
2018-01-21T19:37:40.411Z,1.50
2018-01-21T19:40:12.979Z,1.40
2018-01-21T19:42:46.084Z,1.30
2018-01-21T19:45:13.578Z,1.40
2018-01-21T19:47:41.093Z,1.30
2018-01-21T19:50:08.784Z,1.40
2018-01-21T19:52:36.531Z,1.40
2018-01-21T19:55:04.312Z,1.50
2018-01-21T19:57:31.825Z,1.50
2018-01-21T19:59:59.352Z,1.60
2018-01-21T20:02:26.858Z,1.60
2018-01-21T20:04:54.383Z,1.60
2018-01-21T20:07:22.370Z,1.60
2018-01-21T20:09:49.965Z,1.40
2018-01-21T20:12:17.470Z,1.40
2018-01-21T20:14:45.687Z,1.40
2018-01-21T20:17:13.551Z,1.40
2018-01-21T20:19:41.063Z,1.40
2018-01-21T20:22:08.744Z,1.40
2018-01-21T20:24:36.408Z,1.40
2018-01-21T20:27:03.898Z,1.40
2018-01-21T20:29:31.468Z,1.40
2018-01-21T20:31:58.972Z,1.40
2018-01-21T20:34:26.545Z,1.40
2018-01-21T20:36:54.039Z,1.40
2018-01-21T20:39:21.569Z,1.40
2018-01-21T20:41:49.075Z,1.30
2018-01-21T20:44:17.392Z,1.30
2018-01-21T20:46:44.896Z,1.40
2018-01-21T20:49:12.407Z,1.50
2018-01-21T20:51:45.611Z,1.40
2018-01-21T20:54:18.885Z,1.40
2018-01-21T20:56:46.608Z,1.40
2018-01-21T20:59:14.118Z,1.50
2018-01-21T21:01:41.623Z,1.40
2018-01-21T21:04:09.128Z,1.40
2018-01-21T21:06:36.815Z,1.50
2018-01-21T21:09:04.319Z,1.40
2018-01-21T21:11:32.944Z,1.30
2018-01-21T21:14:00.445Z,1.40
2018-01-21T21:16:27.960Z,1.10
2018-01-21T21:18:55.461Z,1.20
2018-01-21T21:21:24.190Z,1.30
2018-01-21T21:23:51.756Z,1.30
2018-01-21T21:26:19.261Z,1.20
2018-01-21T21:28:46.784Z,1.10
2018-01-21T21:31:14.425Z,1.10
2018-01-21T21:33:41.934Z,1.20
2018-01-21T21:36:09.451Z,1.30
2018-01-21T21:38:37.138Z,1.30
2018-01-21T21:41:04.676Z,1.30
2018-01-21T21:43:32.815Z,1.20
2018-01-21T21:46:00.390Z,1.20
2018-01-21T21:48:28.183Z,1.30
2018-01-21T21:50:55.699Z,1.30
2018-01-21T21:53:23.231Z,1.30
2018-01-21T21:55:51.514Z,1.30
2018-01-21T21:58:19.042Z,1.30
2018-01-21T22:00:46.540Z,1.30
2018-01-21T22:03:14.147Z,1.40
2018-01-21T22:05:41.643Z,1.40
2018-01-21T22:08:09.159Z,1.40
2018-01-21T22:10:36.657Z,1.50
2018-01-21T22:13:05.213Z,1.50
2018-01-21T22:15:32.738Z,1.40
2018-01-21T22:18:00.317Z,1.40
2018-01-21T22:20:27.814Z,1.40
2018-01-21T22:22:55.335Z,1.40
2018-01-21T22:25:23.706Z,1.40
2018-01-21T22:27:51.211Z,1.30
2018-01-21T22:30:18.743Z,1.30
2018-01-21T22:32:46.246Z,1.30
2018-01-21T22:35:13.753Z,1.30
2018-01-21T22:37:41.255Z,1.20
2018-01-21T22:40:08.756Z,1.20
2018-01-21T22:42:36.270Z,1.10
2018-01-21T22:45:03.782Z,1.20
2018-01-21T22:47:31.281Z,1.30
2018-01-21T22:49:59.559Z,1.50
2018-01-21T22:52:27.180Z,1.40
2018-01-21T22:54:54.695Z,1.40
2018-01-21T22:57:24.691Z,1.50
2018-01-21T22:59:52.366Z,1.50
2018-01-21T23:02:19.868Z,1.50
2018-01-21T23:04:47.391Z,1.60
2018-01-21T23:07:14.899Z,1.50
2018-01-21T23:09:42.536Z,1.40
2018-01-21T23:12:10.297Z,1.50
2018-01-21T23:14:37.807Z,1.60
2018-01-21T23:17:05.298Z,1.60
2018-01-21T23:19:32.980Z,1.60
2018-01-21T23:22:00.757Z,1.60
2018-01-21T23:24:29.776Z,1.50
2018-01-21T23:26:57.507Z,1.50
2018-01-21T23:29:25.015Z,1.50
2018-01-21T23:31:52.676Z,1.50
2018-01-21T23:34:20.183Z,1.40
2018-01-21T23:36:48.525Z,1.40
2018-01-21T23:39:16.023Z,1.40
2018-01-21T23:41:45.298Z,1.50
2018-01-21T23:44:13.067Z,1.50
2018-01-21T23:46:40.835Z,1.40
2018-01-21T23:49:08.362Z,1.50
2018-01-21T23:51:35.861Z,1.50
2018-01-21T23:54:03.480Z,1.50
2018-01-21T23:56:31.275Z,1.40
2018-01-21T23:58:59.360Z,1.30
